createdAt,value
2018-06-29T00:00:08.250Z,65.00
2018-06-29T00:00:40.888Z,65.10
2018-06-29T00:01:13.515Z,65.00
2018-06-29T00:01:46.159Z,64.80
2018-06-29T00:02:19.750Z,64.80
2018-06-29T00:02:52.420Z,65.00
2018-06-29T00:03:25.031Z,65.00
2018-06-29T00:03:57.746Z,65.00
2018-06-29T00:04:30.405Z,65.20
2018-06-29T00:05:03.614Z,65.30
2018-06-29T00:05:36.229Z,65.30
2018-06-29T00:06:08.875Z,65.10
2018-06-29T00:06:41.482Z,65.00
2018-06-29T00:07:14.130Z,65.00
2018-06-29T00:07:46.751Z,65.00
2018-06-29T00:08:51.964Z,65.00
2018-06-29T00:09:24.681Z,65.00
2018-06-29T00:09:57.330Z,65.00
2018-06-29T00:10:29.954Z,65.10
2018-06-29T00:11:02.582Z,65.10
2018-06-29T00:11:35.195Z,64.80
2018-06-29T00:12:07.850Z,64.90
2018-06-29T00:12:40.511Z,65.00
2018-06-29T00:13:13.168Z,65.00
2018-06-29T00:13:45.798Z,65.10
2018-06-29T00:14:18.611Z,65.60
2018-06-29T00:14:51.214Z,65.10
2018-06-29T00:15:24.081Z,65.30
2018-06-29T00:15:56.803Z,65.90
2018-06-29T00:16:29.438Z,65.30
2018-06-29T00:17:02.094Z,65.30
2018-06-29T00:17:34.705Z,65.40
2018-06-29T00:18:07.354Z,65.50
2018-06-29T00:18:39.962Z,65.60
2018-06-29T00:19:12.595Z,65.60
2018-06-29T00:19:45.214Z,65.60
2018-06-29T00:20:17.889Z,65.30
2018-06-29T00:20:50.543Z,65.30
2018-06-29T00:21:23.159Z,65.30
2018-06-29T00:21:56.415Z,65.30
2018-06-29T00:22:29.042Z,65.30
2018-06-29T00:23:01.678Z,65.30
2018-06-29T00:23:34.307Z,65.30
2018-06-29T00:24:06.923Z,65.20
2018-06-29T00:24:39.567Z,65.50
2018-06-29T00:25:12.338Z,65.30
2018-06-29T00:25:44.967Z,65.40
2018-06-29T00:26:17.591Z,65.50
2018-06-29T00:26:50.252Z,65.50
2018-06-29T00:27:22.863Z,65.50
2018-06-29T00:27:55.487Z,65.50
2018-06-29T00:28:28.099Z,65.60
2018-06-29T00:29:00.750Z,65.70
2018-06-29T00:29:33.439Z,65.70
2018-06-29T00:30:06.154Z,65.60
2018-06-29T00:30:38.842Z,65.60
2018-06-29T00:31:11.523Z,65.50
2018-06-29T00:31:44.135Z,65.60
2018-06-29T00:32:16.778Z,65.60
2018-06-29T00:32:49.936Z,65.70
2018-06-29T00:33:22.719Z,65.70
2018-06-29T00:33:55.372Z,65.90
2018-06-29T00:34:28.343Z,65.90
2018-06-29T00:35:00.982Z,66.00
2018-06-29T00:35:33.586Z,65.90
2018-06-29T00:36:06.270Z,66.00
2018-06-29T00:36:38.879Z,66.00
2018-06-29T00:37:11.491Z,66.00
2018-06-29T00:37:44.114Z,65.90
2018-06-29T00:38:16.733Z,66.10
2018-06-29T00:38:49.375Z,66.00
2018-06-29T00:39:22.010Z,66.10
2018-06-29T00:39:54.665Z,66.10
2018-06-29T00:40:27.280Z,66.10
2018-06-29T00:40:59.907Z,66.20
2018-06-29T00:41:32.523Z,66.30
2018-06-29T00:42:05.179Z,66.20
2018-06-29T00:42:37.794Z,66.20
2018-06-29T00:43:10.466Z,66.30
2018-06-29T00:43:43.087Z,67.00
2018-06-29T00:44:15.722Z,66.60
2018-06-29T00:44:48.332Z,66.60
2018-06-29T00:45:20.993Z,66.60
2018-06-29T00:45:53.612Z,66.60
2018-06-29T00:46:26.254Z,66.50
2018-06-29T00:46:58.874Z,67.10
2018-06-29T00:47:31.487Z,66.50
2018-06-29T00:48:04.163Z,66.40
2018-06-29T00:48:36.775Z,66.60
2018-06-29T00:49:09.395Z,66.80
2018-06-29T00:49:42.010Z,66.90
2018-06-29T00:50:14.662Z,67.00
2018-06-29T00:50:47.306Z,66.80
2018-06-29T00:51:19.953Z,66.80
2018-06-29T00:51:52.594Z,66.80
2018-06-29T00:52:25.232Z,66.80
2018-06-29T00:52:57.854Z,66.70
2018-06-29T00:53:30.642Z,66.60
2018-06-29T00:54:03.318Z,66.60
2018-06-29T00:54:35.996Z,66.70
2018-06-29T00:55:08.644Z,66.60
2018-06-29T00:55:41.272Z,66.60
2018-06-29T00:56:13.938Z,66.70
2018-06-29T00:56:46.581Z,66.70
2018-06-29T00:57:19.965Z,66.60
2018-06-29T00:57:52.634Z,66.50
2018-06-29T00:58:25.286Z,66.50
2018-06-29T00:58:57.930Z,66.50
2018-06-29T00:59:30.563Z,66.50
2018-06-29T01:00:05.326Z,66.60
2018-06-29T01:00:37.934Z,66.40
2018-06-29T01:01:10.550Z,66.30
2018-06-29T01:01:43.237Z,66.60
2018-06-29T01:02:15.886Z,66.70
2018-06-29T01:02:48.485Z,66.80
2018-06-29T01:03:21.135Z,66.80
2018-06-29T01:03:53.766Z,66.70
2018-06-29T01:04:26.410Z,66.70
2018-06-29T01:04:59.034Z,66.80
2018-06-29T01:05:31.655Z,66.80
2018-06-29T01:06:04.498Z,67.00
2018-06-29T01:06:37.309Z,67.10
2018-06-29T01:07:09.937Z,67.40
2018-06-29T01:07:42.546Z,67.30
2018-06-29T01:08:15.218Z,67.10
2018-06-29T01:09:20.964Z,66.80
2018-06-29T01:09:53.586Z,67.10
2018-06-29T01:10:26.234Z,67.10
2018-06-29T01:10:58.845Z,67.10
2018-06-29T01:11:31.742Z,67.20
2018-06-29T01:12:36.950Z,67.90
2018-06-29T01:13:09.579Z,67.20
2018-06-29T01:13:42.238Z,67.10
2018-06-29T01:14:14.862Z,67.10
2018-06-29T01:14:47.498Z,67.10
2018-06-29T01:15:20.142Z,67.10
2018-06-29T01:15:52.778Z,67.00
2018-06-29T01:16:25.410Z,67.00
2018-06-29T01:16:58.042Z,67.70
2018-06-29T01:17:30.676Z,67.00
2018-06-29T01:18:03.427Z,67.10
2018-06-29T01:18:36.105Z,67.00
2018-06-29T01:19:08.830Z,67.20
2018-06-29T01:19:41.506Z,67.10
2018-06-29T01:20:14.114Z,67.10
2018-06-29T01:20:46.747Z,67.20
2018-06-29T01:21:19.394Z,67.20
2018-06-29T01:21:52.186Z,67.10
2018-06-29T01:22:24.810Z,67.10
2018-06-29T01:22:57.449Z,67.00
2018-06-29T01:23:30.218Z,67.00
2018-06-29T01:24:03.369Z,67.10
2018-06-29T01:25:08.659Z,67.20
2018-06-29T01:25:41.261Z,67.20
2018-06-29T01:26:13.942Z,67.10
2018-06-29T01:26:46.587Z,67.00
2018-06-29T01:27:19.210Z,67.50
2018-06-29T01:27:51.875Z,67.60
2018-06-29T01:28:24.514Z,67.00
2018-06-29T01:28:57.163Z,66.90
2018-06-29T01:29:29.789Z,66.80
2018-06-29T01:30:02.467Z,66.80
2018-06-29T01:30:35.102Z,66.80
2018-06-29T01:31:07.722Z,66.90
2018-06-29T01:31:40.334Z,66.80
2018-06-29T01:32:12.950Z,66.80
2018-06-29T01:32:45.546Z,66.90
2018-06-29T01:33:18.145Z,66.90
2018-06-29T01:33:50.771Z,66.90
2018-06-29T01:34:23.419Z,66.90
2018-06-29T01:34:56.062Z,67.00
2018-06-29T01:35:28.674Z,67.00
2018-06-29T01:36:01.306Z,67.10
2018-06-29T01:36:33.922Z,67.10
2018-06-29T01:37:06.574Z,67.20
2018-06-29T01:37:39.182Z,67.10
2018-06-29T01:38:11.829Z,67.10
2018-06-29T01:38:44.458Z,67.20
2018-06-29T01:39:17.067Z,67.20
2018-06-29T01:39:49.723Z,67.30
2018-06-29T01:40:22.426Z,67.30
2018-06-29T01:40:55.122Z,67.40
2018-06-29T01:41:27.766Z,67.40
2018-06-29T01:42:00.427Z,67.80
2018-06-29T01:42:33.041Z,67.10
2018-06-29T01:43:05.674Z,67.20
2018-06-29T01:43:38.278Z,67.30
2018-06-29T01:44:10.906Z,67.50
2018-06-29T01:44:43.639Z,67.60
2018-06-29T01:45:16.294Z,67.70
2018-06-29T01:45:48.899Z,67.60
2018-06-29T01:46:21.526Z,67.70
2018-06-29T01:46:54.190Z,67.50
2018-06-29T01:47:26.798Z,67.40
2018-06-29T01:47:59.461Z,67.40
2018-06-29T01:48:32.082Z,67.50
2018-06-29T01:49:04.703Z,67.50
2018-06-29T01:49:37.338Z,67.50
2018-06-29T01:50:09.959Z,67.40
2018-06-29T01:50:42.622Z,67.30
2018-06-29T01:51:15.278Z,67.10
2018-06-29T01:51:47.894Z,67.10
2018-06-29T01:52:20.596Z,67.20
2018-06-29T01:52:53.181Z,67.20
2018-06-29T01:53:25.806Z,67.10
2018-06-29T01:53:58.416Z,67.20
2018-06-29T01:54:31.031Z,67.30
2018-06-29T01:55:03.746Z,67.30
2018-06-29T01:55:36.367Z,67.30
2018-06-29T01:56:09.045Z,67.30
2018-06-29T01:56:41.695Z,67.40
2018-06-29T01:57:46.839Z,67.60
2018-06-29T01:58:19.447Z,67.70
2018-06-29T01:58:52.253Z,67.60
2018-06-29T01:59:24.867Z,67.50
2018-06-29T01:59:57.498Z,67.70
2018-06-29T02:00:30.498Z,67.80
2018-06-29T02:01:03.374Z,67.80
2018-06-29T02:02:08.566Z,68.00
2018-06-29T02:02:41.190Z,68.00
2018-06-29T02:03:13.807Z,68.00
2018-06-29T02:03:46.430Z,67.90
2018-06-29T02:04:19.062Z,67.90
2018-06-29T02:04:51.698Z,68.00
2018-06-29T02:05:24.326Z,68.00
2018-06-29T02:05:57.044Z,67.90
2018-06-29T02:06:29.662Z,68.60
2018-06-29T02:07:02.323Z,68.10
2018-06-29T02:07:34.938Z,68.30
2018-06-29T02:08:07.656Z,68.10
2018-06-29T02:08:40.243Z,68.50
2018-06-29T02:09:12.887Z,68.00
2018-06-29T02:09:45.510Z,68.20
2018-06-29T02:10:18.147Z,68.10
2018-06-29T02:10:50.791Z,68.20
2018-06-29T02:11:23.510Z,68.20
2018-06-29T02:11:56.134Z,68.20
2018-06-29T02:12:28.798Z,68.20
2018-06-29T02:13:01.431Z,68.20
2018-06-29T02:14:06.672Z,68.40
2018-06-29T02:14:39.318Z,68.50
2018-06-29T02:15:11.918Z,68.50
2018-06-29T02:15:44.542Z,69.10
2018-06-29T02:16:17.175Z,68.50
2018-06-29T02:16:49.788Z,68.60
2018-06-29T02:17:22.423Z,68.50
2018-06-29T02:17:55.058Z,68.40
2018-06-29T02:19:00.396Z,68.20
2018-06-29T02:20:05.830Z,68.50
2018-06-29T02:20:38.450Z,68.30
2018-06-29T02:21:11.080Z,68.80
2018-06-29T02:21:43.745Z,68.10
2018-06-29T02:22:16.378Z,68.20
2018-06-29T02:22:48.995Z,68.00
2018-06-29T02:23:21.629Z,67.90
2018-06-29T02:23:54.242Z,67.80
2018-06-29T02:24:26.906Z,67.60
2018-06-29T02:24:59.527Z,67.70
2018-06-29T02:25:32.162Z,67.50
2018-06-29T02:26:04.854Z,67.50
2018-06-29T02:26:37.458Z,67.50
2018-06-29T02:27:10.138Z,67.50
2018-06-29T02:28:15.371Z,67.60
2018-06-29T02:28:48.011Z,67.80
2018-06-29T02:29:20.634Z,67.60
2018-06-29T02:29:53.246Z,67.60
2018-06-29T02:30:25.866Z,67.60
2018-06-29T02:30:58.506Z,67.50
2018-06-29T02:31:31.142Z,67.60
2018-06-29T02:32:03.868Z,67.60
2018-06-29T02:32:36.491Z,67.50
2018-06-29T02:33:09.112Z,67.30
2018-06-29T02:33:41.763Z,67.40
2018-06-29T02:34:14.394Z,67.70
2018-06-29T02:34:47.030Z,67.60
2018-06-29T02:35:19.655Z,67.30
2018-06-29T02:35:52.275Z,67.30
2018-06-29T02:36:24.900Z,67.60
2018-06-29T02:36:57.567Z,67.40
2018-06-29T02:37:30.192Z,67.20
2018-06-29T02:38:02.954Z,67.10
2018-06-29T02:38:35.581Z,67.10
2018-06-29T02:39:10.034Z,67.20
2018-06-29T02:39:42.807Z,67.30
2018-06-29T02:40:15.430Z,67.20
2018-06-29T02:40:48.042Z,67.70
2018-06-29T02:41:20.682Z,67.10
2018-06-29T02:41:53.338Z,67.10
2018-06-29T02:42:25.955Z,67.20
2018-06-29T02:42:58.629Z,67.40
2018-06-29T02:43:31.263Z,67.30
2018-06-29T02:44:03.949Z,67.20
2018-06-29T02:44:36.570Z,67.00
2018-06-29T02:45:09.223Z,67.30
2018-06-29T02:45:42.096Z,67.20
2018-06-29T02:46:14.719Z,67.20
2018-06-29T02:46:47.345Z,67.30
2018-06-29T02:47:19.957Z,67.20
2018-06-29T02:47:52.603Z,67.20
2018-06-29T02:48:25.551Z,67.40
2018-06-29T02:48:58.158Z,67.50
2018-06-29T02:49:30.775Z,67.60
2018-06-29T02:50:03.499Z,67.60
2018-06-29T02:50:36.139Z,67.50
2018-06-29T02:51:08.760Z,67.40
2018-06-29T02:51:41.394Z,67.40
2018-06-29T02:52:14.031Z,67.00
2018-06-29T02:52:46.655Z,67.00
2018-06-29T02:53:19.287Z,67.30
2018-06-29T02:53:51.907Z,67.20
2018-06-29T02:54:24.530Z,67.20
2018-06-29T02:54:57.147Z,67.20
2018-06-29T02:55:29.830Z,67.20
2018-06-29T02:56:02.487Z,67.20
2018-06-29T02:56:35.112Z,67.10
2018-06-29T02:57:40.330Z,67.10
2018-06-29T02:58:12.974Z,66.90
2018-06-29T02:58:45.586Z,66.80
2018-06-29T02:59:18.214Z,66.90
2018-06-29T02:59:50.862Z,67.10
2018-06-29T03:00:23.478Z,67.30
2018-06-29T03:00:56.127Z,67.20
2018-06-29T03:01:28.750Z,67.20
2018-06-29T03:02:01.376Z,67.10
2018-06-29T03:02:33.986Z,66.80
2018-06-29T03:03:06.646Z,66.80
2018-06-29T03:03:39.262Z,66.90
2018-06-29T03:04:11.982Z,67.10
2018-06-29T03:04:44.627Z,67.10
2018-06-29T03:05:17.279Z,67.00
2018-06-29T03:05:49.895Z,66.90
2018-06-29T03:06:22.522Z,66.80
2018-06-29T03:06:55.172Z,66.70
2018-06-29T03:07:27.818Z,66.40
2018-06-29T03:08:00.434Z,66.50
2018-06-29T03:08:33.054Z,66.20
2018-06-29T03:09:07.042Z,66.40
2018-06-29T03:09:39.679Z,66.40
2018-06-29T03:10:12.327Z,66.30
2018-06-29T03:10:44.951Z,66.50
2018-06-29T03:11:17.596Z,66.40
2018-06-29T03:11:50.210Z,66.40
2018-06-29T03:12:22.867Z,66.50
2018-06-29T03:12:55.514Z,66.60
2018-06-29T03:13:28.151Z,66.50
2018-06-29T03:14:00.767Z,67.00
2018-06-29T03:14:33.387Z,66.50
2018-06-29T03:15:06.075Z,66.60
2018-06-29T03:15:38.711Z,66.70
2018-06-29T03:16:11.330Z,66.80
2018-06-29T03:16:43.966Z,66.70
2018-06-29T03:17:16.606Z,66.80
2018-06-29T03:17:49.253Z,66.70
2018-06-29T03:18:21.875Z,66.50
2018-06-29T03:18:54.499Z,66.30
2018-06-29T03:19:27.134Z,65.90
2018-06-29T03:19:59.781Z,65.90
2018-06-29T03:20:32.402Z,66.00
2018-06-29T03:21:05.214Z,66.00
2018-06-29T03:21:37.866Z,65.90
2018-06-29T03:22:10.486Z,66.10
2018-06-29T03:22:43.102Z,66.80
2018-06-29T03:23:15.786Z,66.20
2018-06-29T03:23:48.414Z,66.50
2018-06-29T03:24:21.027Z,66.80
2018-06-29T03:24:53.639Z,66.80
2018-06-29T03:25:26.270Z,66.70
2018-06-29T03:25:58.906Z,66.70
2018-06-29T03:26:31.559Z,66.70
2018-06-29T03:27:04.334Z,67.00
2018-06-29T03:27:37.033Z,67.10
2018-06-29T03:28:09.742Z,67.10
2018-06-29T03:28:42.378Z,67.20
2018-06-29T03:29:14.998Z,67.20
2018-06-29T03:29:47.614Z,67.80
2018-06-29T03:30:20.222Z,67.10
2018-06-29T03:30:52.830Z,67.00
2018-06-29T03:31:25.435Z,67.00
2018-06-29T03:31:58.072Z,67.10
2018-06-29T03:32:30.794Z,67.30
2018-06-29T03:33:03.530Z,67.30
2018-06-29T03:33:36.117Z,67.20
2018-06-29T03:34:08.926Z,66.90
2018-06-29T03:34:41.555Z,67.00
2018-06-29T03:35:14.195Z,66.90
2018-06-29T03:35:46.826Z,66.80
2018-06-29T03:36:19.470Z,66.70
2018-06-29T03:36:52.582Z,66.60
2018-06-29T03:37:25.226Z,66.60
2018-06-29T03:37:57.846Z,66.60
2018-06-29T03:38:30.526Z,66.60
2018-06-29T03:39:04.771Z,66.60
2018-06-29T03:39:37.402Z,66.80
2018-06-29T03:40:10.035Z,67.00
2018-06-29T03:40:42.895Z,67.30
2018-06-29T03:41:15.382Z,67.30
2018-06-29T03:41:48.010Z,66.90
2018-06-29T03:42:20.635Z,66.80
2018-06-29T03:42:53.249Z,67.30
2018-06-29T03:43:25.862Z,66.70
2018-06-29T03:43:58.494Z,66.60
2018-06-29T03:44:31.106Z,66.60
2018-06-29T03:45:04.098Z,66.60
2018-06-29T03:45:36.722Z,66.50
2018-06-29T03:46:09.366Z,66.60
2018-06-29T03:46:42.027Z,66.90
2018-06-29T03:47:14.659Z,67.00
2018-06-29T03:47:47.270Z,67.00
2018-06-29T03:48:19.888Z,66.90
2018-06-29T03:48:52.498Z,66.50
2018-06-29T03:49:25.147Z,66.50
2018-06-29T03:49:57.767Z,66.50
2018-06-29T03:50:31.167Z,66.60
2018-06-29T03:51:36.322Z,66.30
2018-06-29T03:52:08.970Z,66.30
2018-06-29T03:52:41.590Z,66.40
2018-06-29T03:53:14.286Z,66.40
2018-06-29T03:53:46.902Z,66.40
2018-06-29T03:54:19.544Z,66.40
2018-06-29T03:54:52.166Z,66.40
2018-06-29T03:55:24.778Z,66.50
2018-06-29T03:55:57.427Z,66.40
2018-06-29T03:56:30.158Z,66.40
2018-06-29T03:57:02.790Z,66.40
2018-06-29T03:57:35.410Z,66.50
2018-06-29T03:58:08.027Z,66.50
2018-06-29T03:58:40.650Z,66.50
2018-06-29T03:59:13.270Z,66.50
2018-06-29T03:59:45.902Z,66.50
2018-06-29T04:00:18.525Z,66.40
2018-06-29T04:00:51.147Z,66.30
2018-06-29T04:01:23.818Z,66.50
2018-06-29T04:01:56.447Z,66.60
2018-06-29T04:02:29.062Z,66.50
2018-06-29T04:03:01.700Z,66.40
2018-06-29T04:04:10.970Z,66.20
2018-06-29T04:04:47.413Z,66.10
2018-06-29T04:05:22.760Z,66.10
2018-06-29T04:05:58.627Z,66.10
2018-06-29T04:06:32.026Z,66.10
2018-06-29T04:07:04.698Z,66.00
2018-06-29T04:07:37.328Z,66.00
2018-06-29T04:08:09.971Z,66.00
2018-06-29T04:08:42.582Z,66.00
2018-06-29T04:09:15.279Z,66.00
2018-06-29T04:09:47.883Z,66.00
2018-06-29T04:10:20.523Z,66.10
2018-06-29T04:10:53.126Z,66.10
2018-06-29T04:11:58.315Z,66.10
2018-06-29T04:12:30.917Z,66.50
2018-06-29T04:13:03.566Z,66.60
2018-06-29T04:13:36.376Z,66.50
2018-06-29T04:14:08.999Z,66.20
2018-06-29T04:14:41.618Z,66.20
2018-06-29T04:15:14.266Z,66.10
2018-06-29T04:15:46.885Z,65.90
2018-06-29T04:16:19.503Z,66.00
2018-06-29T04:16:52.110Z,66.20
2018-06-29T04:17:24.778Z,66.20
2018-06-29T04:17:57.470Z,65.90
2018-06-29T04:18:30.094Z,65.80
2018-06-29T04:19:02.729Z,65.80
2018-06-29T04:19:35.379Z,65.70
2018-06-29T04:20:08.020Z,65.60
2018-06-29T04:20:40.800Z,65.50
2018-06-29T04:21:13.428Z,65.60
2018-06-29T04:21:46.055Z,65.50
2018-06-29T04:22:18.682Z,65.50
2018-06-29T04:22:51.511Z,65.40
2018-06-29T04:23:24.210Z,65.60
2018-06-29T04:23:56.898Z,65.60
2018-06-29T04:24:29.567Z,65.40
2018-06-29T04:25:03.707Z,65.40
2018-06-29T04:25:36.396Z,65.20
2018-06-29T04:26:09.026Z,65.20
2018-06-29T04:26:41.663Z,65.20
2018-06-29T04:27:14.284Z,65.20
2018-06-29T04:28:19.513Z,65.30
2018-06-29T04:28:52.135Z,65.10
2018-06-29T04:29:24.751Z,65.10
2018-06-29T04:29:57.378Z,65.10
2018-06-29T04:30:30.007Z,65.30
2018-06-29T04:31:02.874Z,65.30
2018-06-29T04:31:35.514Z,65.10
2018-06-29T04:32:08.202Z,64.90
2018-06-29T04:32:42.042Z,64.70
2018-06-29T04:33:14.678Z,64.50
2018-06-29T04:33:47.330Z,64.40
2018-06-29T04:34:20.288Z,64.40
2018-06-29T04:34:52.935Z,64.70
2018-06-29T04:35:25.563Z,65.10
2018-06-29T04:35:58.187Z,64.90
2018-06-29T04:36:30.806Z,64.80
2018-06-29T04:37:03.414Z,65.00
2018-06-29T04:37:36.031Z,65.00
2018-06-29T04:38:08.664Z,65.10
2018-06-29T04:38:41.277Z,64.90
2018-06-29T04:39:13.949Z,64.70
2018-06-29T04:39:46.578Z,64.80
2018-06-29T04:40:19.199Z,64.80
2018-06-29T04:40:51.814Z,64.60
2018-06-29T04:41:24.444Z,64.50
2018-06-29T04:41:57.074Z,64.50
2018-06-29T04:42:29.698Z,64.40
2018-06-29T04:43:02.343Z,64.30
2018-06-29T04:43:34.966Z,64.20
2018-06-29T04:44:07.595Z,64.30
